To NAV CANADA Home Page Login to a new session Search on AWWS site Feedback and Comments Disclaimer Vers la page française équivalente Tips FAQ What's new on the site To the Forecasts and Observations / NOTAM section To "File a Flight Plan" website Publications and other links Update of the User's profile FIC Telephone Numbers My Weather Data Folder Route Weather Data Regional Weather Data Local Weather Data To the Forecasts and Observations / NOTAM section
Request Generated 10/17/2017 at 01:49:12 UTC . Weather information available at that time is displayed.

METAR/TAF

LONDON/ON    

METAR CYXU 170100Z 11004KT 15SM SKC 04/01 A3025 RMK SLP254=
METAR CYXU 170000Z 12003KT 15SM SKC 05/01 A3026 RMK SLP259=
METAR CYXU 162300Z 30004KT 15SM FEW040 07/M01 A3026 RMK SC1 SC TR
SLP257=

TAF CYXU 162338Z 1700/1724 30005KT P6SM FEW040
FM170500 VRB03KT P6SM SKC
BECMG 1708/1710 23008KT
FM171200 22010G20KT P6SM FEW270
BECMG 1715/1717 24017G27KT
FM172100 24017G27KT P6SM FEW030
RMK NXT FCST BY 170600Z=
Your time UTC time
Weather data provided by Environment Canada and NAV CANADA